sensor_id;sensor_type;location;lat;lon;timestamp;pressure;altitude;pressure_sealevel;temperature;humidity
47742;BME280;33504;52.066;6.096;2022-11-21T00:01:13;100496.78;;;5.61;47.38
47742;BME280;33504;52.066;6.096;2022-11-21T00:03:41;100498.65;;;5.36;47.51
47742;BME280;33504;52.066;6.096;2022-11-21T00:06:07;100499.46;;;5.32;47.32
47742;BME280;33504;52.066;6.096;2022-11-21T00:08:34;100500.12;;;5.55;47.38
47742;BME280;33504;52.066;6.096;2022-11-21T00:11:01;100502.00;;;5.32;47.37
47742;BME280;33504;52.066;6.096;2022-11-21T00:13:28;100499.84;;;5.55;47.38
47742;BME280;33504;52.066;6.096;2022-11-21T00:15:55;100502.33;;;5.54;47.46
47742;BME280;33504;52.066;6.096;2022-11-21T00:18:22;100499.93;;;5.57;47.45
47742;BME280;33504;52.066;6.096;2022-11-21T00:20:49;100502.24;;;5.35;47.33
47742;BME280;33504;52.066;6.096;2022-11-21T00:23:16;100503.04;;;5.07;47.28
47742;BME280;33504;52.066;6.096;2022-11-21T00:25:43;100501.60;;;5.52;47.33
47742;BME280;33504;52.066;6.096;2022-11-21T00:28:10;100505.39;;;5.51;47.56
47742;BME280;33504;52.066;6.096;2022-11-21T00:30:36;100506.15;;;5.46;47.41
47742;BME280;33504;52.066;6.096;2022-11-21T00:33:03;100505.04;;;5.45;47.50
47742;BME280;33504;52.066;6.096;2022-11-21T00:35:30;100505.69;;;5.25;47.39
47742;BME280;33504;52.066;6.096;2022-11-21T00:37:57;100504.65;;;5.27;47.50
47742;BME280;33504;52.066;6.096;2022-11-21T00:40:24;100505.95;;;5.51;47.48
47742;BME280;33504;52.066;6.096;2022-11-21T00:42:51;100503.20;;;5.51;47.30
47742;BME280;33504;52.066;6.096;2022-11-21T00:45:18;100504.54;;;5.46;46.90
47742;BME280;33504;52.066;6.096;2022-11-21T00:47:45;100501.80;;;5.43;47.00
47742;BME280;33504;52.066;6.096;2022-11-21T00:50:12;100511.13;;;5.37;46.78
47742;BME280;33504;52.066;6.096;2022-11-21T00:52:39;100508.23;;;5.31;46.78
47742;BME280;33504;52.066;6.096;2022-11-21T00:55:07;100507.17;;;5.27;47.19
47742;BME280;33504;52.066;6.096;2022-11-21T00:57:34;100505.19;;;5.04;47.64
47742;BME280;33504;52.066;6.096;2022-11-21T01:00:03;100505.87;;;5.40;47.50
47742;BME280;33504;52.066;6.096;2022-11-21T01:02:31;100512.24;;;5.22;47.47
47742;BME280;33504;52.066;6.096;2022-11-21T01:04:58;100518.97;;;5.24;47.49
47742;BME280;33504;52.066;6.096;2022-11-21T01:07:25;100523.78;;;5.49;47.33
47742;BME280;33504;52.066;6.096;2022-11-21T01:09:52;100528.39;;;5.21;47.43
47742;BME280;33504;52.066;6.096;2022-11-21T01:12:19;100530.85;;;5.17;47.48
47742;BME280;33504;52.066;6.096;2022-11-21T01:14:47;100533.30;;;5.23;47.48
47742;BME280;33504;52.066;6.096;2022-11-21T01:17:14;100534.42;;;5.26;47.51
47742;BME280;33504;52.066;6.096;2022-11-21T01:19:40;100532.75;;;5.30;47.48
47742;BME280;33504;52.066;6.096;2022-11-21T01:22:08;100534.90;;;5.16;47.56
47742;BME280;33504;52.066;6.096;2022-11-21T01:24:35;100539.00;;;5.27;47.44
47742;BME280;33504;52.066;6.096;2022-11-21T01:27:02;100535.99;;;5.28;47.12
47742;BME280;33504;52.066;6.096;2022-11-21T01:29:30;100536.31;;;5.08;47.24
47742;BME280;33504;52.066;6.096;2022-11-21T01:31:57;100535.40;;;5.31;47.30
47742;BME280;33504;52.066;6.096;2022-11-21T01:34:24;100538.61;;;5.32;47.35
47742;BME280;33504;52.066;6.096;2022-11-21T01:36:51;100532.47;;;5.34;47.33
47742;BME280;33504;52.066;6.096;2022-11-21T01:39:18;100529.04;;;5.40;47.26
47742;BME280;33504;52.066;6.096;2022-11-21T01:41:45;100523.65;;;5.37;47.25
47742;BME280;33504;52.066;6.096;2022-11-21T01:44:17;100522.10;;;5.36;47.04
47742;BME280;33504;52.066;6.096;2022-11-21T01:46:45;100522.80;;;5.16;47.00
47742;BME280;33504;52.066;6.096;2022-11-21T01:49:15;100521.47;;;5.38;46.99
47742;BME280;33504;52.066;6.096;2022-11-21T01:51:46;100515.52;;;5.29;47.05
47742;BME280;33504;52.066;6.096;2022-11-21T01:54:19;100515.72;;;5.32;46.92
47742;BME280;33504;52.066;6.096;2022-11-21T01:56:51;100517.34;;;5.32;46.67
47742;BME280;33504;52.066;6.096;2022-11-21T01:59:24;100517.99;;;5.31;46.75
47742;BME280;33504;52.066;6.096;2022-11-21T02:01:54;100520.13;;;5.50;46.75
47742;BME280;33504;52.066;6.096;2022-11-21T02:04:25;100516.60;;;5.28;46.74
47742;BME280;33504;52.066;6.096;2022-11-21T02:06:54;100511.51;;;5.28;46.98
47742;BME280;33504;52.066;6.096;2022-11-21T02:09:22;100510.94;;;4.98;47.10
47742;BME280;33504;52.066;6.096;2022-11-21T02:11:53;100513.93;;;5.04;47.11
47742;BME280;33504;52.066;6.096;2022-11-21T02:14:21;100516.76;;;5.28;47.14
47742;BME280;33504;52.066;6.096;2022-11-21T02:16:48;100516.60;;;5.31;47.12
47742;BME280;33504;52.066;6.096;2022-11-21T02:19:22;100520.35;;;5.32;47.21
47742;BME280;33504;52.066;6.096;2022-11-21T02:21:58;100519.64;;;5.33;47.13
47742;BME280;33504;52.066;6.096;2022-11-21T02:24:31;100518.81;;;5.37;47.11
47742;BME280;33504;52.066;6.096;2022-11-21T02:27:01;100519.48;;;5.15;47.34
47742;BME280;33504;52.066;6.096;2022-11-21T02:29:29;100522.32;;;5.42;47.27
47742;BME280;33504;52.066;6.096;2022-11-21T02:31:58;100517.89;;;5.28;47.16
47742;BME280;33504;52.066;6.096;2022-11-21T02:34:25;100520.15;;;5.25;47.21
47742;BME280;33504;52.066;6.096;2022-11-21T02:36:52;100522.02;;;5.22;47.12
47742;BME280;33504;52.066;6.096;2022-11-21T02:39:22;100523.50;;;5.22;47.14
47742;BME280;33504;52.066;6.096;2022-11-21T02:41:58;100516.89;;;5.21;47.22
47742;BME280;33504;52.066;6.096;2022-11-21T02:44:31;100513.88;;;5.21;47.18
47742;BME280;33504;52.066;6.096;2022-11-21T02:47:02;100512.73;;;5.16;47.15
47742;BME280;33504;52.066;6.096;2022-11-21T02:49:37;100510.93;;;5.17;47.04
47742;BME280;33504;52.066;6.096;2022-11-21T02:52:06;100521.35;;;5.13;46.87
47742;BME280;33504;52.066;6.096;2022-11-21T02:54:33;100528.42;;;5.08;46.55
47742;BME280;33504;52.066;6.096;2022-11-21T02:57:00;100531.44;;;5.04;46.54
47742;BME280;33504;52.066;6.096;2022-11-21T02:59:27;100531.13;;;5.04;46.62
47742;BME280;33504;52.066;6.096;2022-11-21T03:01:54;100525.86;;;5.01;46.82
47742;BME280;33504;52.066;6.096;2022-11-21T03:04:21;100518.39;;;5.23;47.05
47742;BME280;33504;52.066;6.096;2022-11-21T03:06:48;100513.19;;;4.97;47.16
47742;BME280;33504;52.066;6.096;2022-11-21T03:09:15;100506.54;;;4.89;47.47
47742;BME280;33504;52.066;6.096;2022-11-21T03:11:42;100504.17;;;4.99;47.41
47742;BME280;33504;52.066;6.096;2022-11-21T03:14:09;100507.02;;;5.26;47.56
47742;BME280;33504;52.066;6.096;2022-11-21T03:16:37;100502.43;;;5.07;47.45
47742;BME280;33504;52.066;6.096;2022-11-21T03:19:04;100499.77;;;5.11;47.47
47742;BME280;33504;52.066;6.096;2022-11-21T03:21:32;100501.83;;;5.15;47.45
47742;BME280;33504;52.066;6.096;2022-11-21T03:23:59;100497.01;;;5.31;47.26
47742;BME280;33504;52.066;6.096;2022-11-21T03:26:27;100489.33;;;5.04;47.29
47742;BME280;33504;52.066;6.096;2022-11-21T03:28:54;100490.46;;;5.29;47.26
47742;BME280;33504;52.066;6.096;2022-11-21T03:31:20;100488.40;;;5.03;47.38
47742;BME280;33504;52.066;6.096;2022-11-21T03:33:47;100483.66;;;4.80;47.24
47742;BME280;33504;52.066;6.096;2022-11-21T03:36:14;100484.88;;;5.03;47.27
47742;BME280;33504;52.066;6.096;2022-11-21T03:38:41;100481.99;;;5.01;47.35
47742;BME280;33504;52.066;6.096;2022-11-21T03:41:08;100479.42;;;4.95;47.21
47742;BME280;33504;52.066;6.096;2022-11-21T03:43:35;100473.74;;;4.89;47.31
47742;BME280;33504;52.066;6.096;2022-11-21T03:46:02;100472.70;;;5.07;47.40
47742;BME280;33504;52.066;6.096;2022-11-21T03:48:28;100472.20;;;4.79;47.50
47742;BME280;33504;52.066;6.096;2022-11-21T03:50:55;100468.12;;;4.87;47.32
47742;BME280;33504;52.066;6.096;2022-11-21T03:53:22;100463.37;;;5.12;47.29
47742;BME280;33504;52.066;6.096;2022-11-21T03:55:49;100462.59;;;4.84;47.36
47742;BME280;33504;52.066;6.096;2022-11-21T03:58:16;100466.02;;;5.11;47.44
47742;BME280;33504;52.066;6.096;2022-11-21T04:00:43;100467.74;;;4.84;47.31
47742;BME280;33504;52.066;6.096;2022-11-21T04:03:10;100472.25;;;4.87;47.39
47742;BME280;33504;52.066;6.096;2022-11-21T04:05:37;100473.36;;;4.87;47.25
47742;BME280;33504;52.066;6.096;2022-11-21T04:08:05;100473.05;;;5.05;47.32
47742;BME280;33504;52.066;6.096;2022-11-21T04:10:31;100474.09;;;4.83;47.27
47742;BME280;33504;52.066;6.096;2022-11-21T04:12:58;100474.63;;;4.65;47.27
47742;BME280;33504;52.066;6.096;2022-11-21T04:15:25;100475.82;;;4.68;47.31
47742;BME280;33504;52.066;6.096;2022-11-21T04:17:52;100482.30;;;4.55;47.45
47742;BME280;33504;52.066;6.096;2022-11-21T04:20:20;100481.57;;;4.88;47.49
47742;BME280;33504;52.066;6.096;2022-11-21T04:22:46;100480.36;;;4.91;47.41
47742;BME280;33504;52.066;6.096;2022-11-21T04:25:13;100477.18;;;4.88;47.53
47742;BME280;33504;52.066;6.096;2022-11-21T04:27:40;100473.34;;;4.85;47.49
47742;BME280;33504;52.066;6.096;2022-11-21T04:30:09;100474.79;;;4.90;47.63
47742;BME280;33504;52.066;6.096;2022-11-21T04:32:36;100476.58;;;4.93;47.67
47742;BME280;33504;52.066;6.096;2022-11-21T04:35:03;100477.12;;;4.99;47.72
47742;BME280;33504;52.066;6.096;2022-11-21T04:37:30;100481.83;;;4.74;47.61
47742;BME280;33504;52.066;6.096;2022-11-21T04:39:58;100480.05;;;4.54;47.73
47742;BME280;33504;52.066;6.096;2022-11-21T04:42:25;100480.32;;;4.58;47.79
47742;BME280;33504;52.066;6.096;2022-11-21T04:44:52;100485.36;;;4.64;47.83
47742;BME280;33504;52.066;6.096;2022-11-21T04:47:19;100477.81;;;4.94;47.75
47742;BME280;33504;52.066;6.096;2022-11-21T04:49:46;100471.18;;;4.99;47.72
47742;BME280;33504;52.066;6.096;2022-11-21T04:52:13;100473.71;;;5.31;47.71
47742;BME280;33504;52.066;6.096;2022-11-21T04:54:40;100472.51;;;4.86;47.59
47742;BME280;33504;52.066;6.096;2022-11-21T04:57:08;100468.37;;;4.70;47.67
47742;BME280;33504;52.066;6.096;2022-11-21T04:59:35;100463.11;;;4.81;47.95
47742;BME280;33504;52.066;6.096;2022-11-21T05:02:02;100464.51;;;4.63;48.05
47742;BME280;33504;52.066;6.096;2022-11-21T05:04:29;100464.65;;;4.58;48.46
47742;BME280;33504;52.066;6.096;2022-11-21T05:06:57;100460.23;;;4.62;48.26
47742;BME280;33504;52.066;6.096;2022-11-21T05:09:24;100462.03;;;4.77;47.98
47742;BME280;33504;52.066;6.096;2022-11-21T05:11:51;100462.54;;;4.50;48.05
47742;BME280;33504;52.066;6.096;2022-11-21T05:14:18;100456.03;;;4.67;47.99
47742;BME280;33504;52.066;6.096;2022-11-21T05:16:45;100453.06;;;4.43;48.31
47742;BME280;33504;52.066;6.096;2022-11-21T05:19:12;100448.51;;;4.09;49.33
47742;BME280;33504;52.066;6.096;2022-11-21T05:21:40;100445.22;;;4.26;49.60
47742;BME280;33504;52.066;6.096;2022-11-21T05:24:07;100437.37;;;3.95;50.11
47742;BME280;33504;52.066;6.096;2022-11-21T05:26:34;100436.09;;;4.39;49.54
47742;BME280;33504;52.066;6.096;2022-11-21T05:29:01;100442.58;;;4.55;49.39
47742;BME280;33504;52.066;6.096;2022-11-21T05:31:29;100442.74;;;4.47;49.74
47742;BME280;33504;52.066;6.096;2022-11-21T05:33:56;100442.21;;;4.35;49.35
47742;BME280;33504;52.066;6.096;2022-11-21T05:36:23;100440.90;;;4.35;49.36
47742;BME280;33504;52.066;6.096;2022-11-21T05:38:50;100436.82;;;4.49;49.22
47742;BME280;33504;52.066;6.096;2022-11-21T05:41:17;100432.72;;;4.55;49.10
47742;BME280;33504;52.066;6.096;2022-11-21T05:43:44;100433.63;;;4.34;49.15
47742;BME280;33504;52.066;6.096;2022-11-21T05:46:12;100440.09;;;4.44;49.40
47742;BME280;33504;52.066;6.096;2022-11-21T05:48:39;100449.09;;;4.38;49.51
47742;BME280;33504;52.066;6.096;2022-11-21T05:51:06;100445.25;;;4.29;49.54
47742;BME280;33504;52.066;6.096;2022-11-21T05:53:34;100438.20;;;3.92;49.92
47742;BME280;33504;52.066;6.096;2022-11-21T05:56:04;100432.99;;;4.24;50.03
47742;BME280;33504;52.066;6.096;2022-11-21T05:58:32;100422.03;;;3.84;50.72
47742;BME280;33504;52.066;6.096;2022-11-21T06:00:59;100430.14;;;4.41;50.35
47742;BME280;33504;52.066;6.096;2022-11-21T06:03:29;100435.07;;;4.62;49.97
47742;BME280;33504;52.066;6.096;2022-11-21T06:05:59;100433.38;;;4.35;50.00
47742;BME280;33504;52.066;6.096;2022-11-21T06:08:27;100427.06;;;4.11;49.90
47742;BME280;33504;52.066;6.096;2022-11-21T06:10:55;100422.94;;;4.34;50.74
47742;BME280;33504;52.066;6.096;2022-11-21T06:13:22;100420.08;;;4.25;50.90
47742;BME280;33504;52.066;6.096;2022-11-21T06:15:51;100421.15;;;4.14;50.83
47742;BME280;33504;52.066;6.096;2022-11-21T06:18:18;100421.18;;;4.52;50.86
47742;BME280;33504;52.066;6.096;2022-11-21T06:20:46;100415.37;;;4.63;50.56
47742;BME280;33504;52.066;6.096;2022-11-21T06:23:13;100413.81;;;4.48;50.52
47742;BME280;33504;52.066;6.096;2022-11-21T06:25:40;100413.37;;;4.45;50.68
47742;BME280;33504;52.066;6.096;2022-11-21T06:28:08;100406.78;;;4.49;50.35
47742;BME280;33504;52.066;6.096;2022-11-21T06:30:35;100405.24;;;4.73;50.43
47742;BME280;33504;52.066;6.096;2022-11-21T06:33:04;100397.15;;;4.50;50.61
47742;BME280;33504;52.066;6.096;2022-11-21T06:35:35;100394.80;;;4.73;50.84
47742;BME280;33504;52.066;6.096;2022-11-21T06:38:03;100396.18;;;3.94;51.68
47742;BME280;33504;52.066;6.096;2022-11-21T06:40:29;100394.33;;;4.25;51.59
47742;BME280;33504;52.066;6.096;2022-11-21T06:42:56;100399.73;;;4.42;51.43
47742;BME280;33504;52.066;6.096;2022-11-21T06:45:23;100400.41;;;4.37;51.34
47742;BME280;33504;52.066;6.096;2022-11-21T06:47:51;100403.02;;;4.06;51.56
47742;BME280;33504;52.066;6.096;2022-11-21T06:50:18;100402.91;;;4.32;51.33
47742;BME280;33504;52.066;6.096;2022-11-21T06:52:45;100402.00;;;4.10;51.88
47742;BME280;33504;52.066;6.096;2022-11-21T06:55:12;100398.87;;;3.83;52.46
47742;BME280;33504;52.066;6.096;2022-11-21T06:57:39;100401.23;;;3.79;52.36
47742;BME280;33504;52.066;6.096;2022-11-21T07:00:07;100404.51;;;3.22;53.29
47742;BME280;33504;52.066;6.096;2022-11-21T07:02:34;100409.17;;;4.10;52.18
47742;BME280;33504;52.066;6.096;2022-11-21T07:05:02;100407.38;;;3.39;53.03
47742;BME280;33504;52.066;6.096;2022-11-21T07:07:29;100403.49;;;3.13;53.70
47742;BME280;33504;52.066;6.096;2022-11-21T07:09:56;100394.71;;;3.77;53.43
47742;BME280;33504;52.066;6.096;2022-11-21T07:12:23;100391.14;;;3.21;53.71
47742;BME280;33504;52.066;6.096;2022-11-21T07:14:50;100387.98;;;3.76;53.31
47742;BME280;33504;52.066;6.096;2022-11-21T07:17:17;100381.73;;;3.85;52.94
47742;BME280;33504;52.066;6.096;2022-11-21T07:19:44;100389.58;;;3.99;52.28
47742;BME280;33504;52.066;6.096;2022-11-21T07:22:11;100394.60;;;4.35;52.05
47742;BME280;33504;52.066;6.096;2022-11-21T07:24:37;100399.60;;;4.26;51.74
47742;BME280;33504;52.066;6.096;2022-11-21T07:27:05;100403.91;;;4.25;51.62
47742;BME280;33504;52.066;6.096;2022-11-21T07:29:32;100402.57;;;4.43;51.76
47742;BME280;33504;52.066;6.096;2022-11-21T07:31:59;100394.95;;;4.42;51.64
47742;BME280;33504;52.066;6.096;2022-11-21T07:34:26;100389.34;;;3.95;51.98
47742;BME280;33504;52.066;6.096;2022-11-21T07:36:53;100393.99;;;3.96;52.29
47742;BME280;33504;52.066;6.096;2022-11-21T07:39:20;100396.22;;;4.18;52.19
47742;BME280;33504;52.066;6.096;2022-11-21T07:41:47;100394.05;;;4.04;51.87
47742;BME280;33504;52.066;6.096;2022-11-21T07:44:14;100388.47;;;4.23;51.95
47742;BME280;33504;52.066;6.096;2022-11-21T07:46:41;100388.91;;;3.75;52.21
47742;BME280;33504;52.066;6.096;2022-11-21T07:49:08;100388.00;;;4.19;52.37
47742;BME280;33504;52.066;6.096;2022-11-21T07:51:35;100384.55;;;4.54;51.97
47742;BME280;33504;52.066;6.096;2022-11-21T07:54:03;100376.47;;;4.12;52.10
47742;BME280;33504;52.066;6.096;2022-11-21T07:56:29;100373.35;;;4.44;51.67
47742;BME280;33504;52.066;6.096;2022-11-21T07:58:57;100370.84;;;4.36;51.46
47742;BME280;33504;52.066;6.096;2022-11-21T08:01:24;100369.46;;;4.57;51.17
47742;BME280;33504;52.066;6.096;2022-11-21T08:03:51;100366.95;;;4.83;50.89
47742;BME280;33504;52.066;6.096;2022-11-21T08:06:18;100368.87;;;4.38;51.21
47742;BME280;33504;52.066;6.096;2022-11-21T08:08:45;100366.79;;;4.36;51.85
47742;BME280;33504;52.066;6.096;2022-11-21T08:11:12;100364.14;;;4.47;51.47
47742;BME280;33504;52.066;6.096;2022-11-21T08:13:39;100363.24;;;4.76;51.07
47742;BME280;33504;52.066;6.096;2022-11-21T08:16:06;100364.06;;;4.54;51.11
47742;BME280;33504;52.066;6.096;2022-11-21T08:18:33;100360.29;;;4.94;50.85
47742;BME280;33504;52.066;6.096;2022-11-21T08:21:01;100351.16;;;5.02;50.71
47742;BME280;33504;52.066;6.096;2022-11-21T08:23:28;100344.38;;;4.79;50.80
47742;BME280;33504;52.066;6.096;2022-11-21T08:25:55;100345.28;;;4.90;51.04
47742;BME280;33504;52.066;6.096;2022-11-21T08:28:22;100344.19;;;4.86;50.56
47742;BME280;33504;52.066;6.096;2022-11-21T08:30:49;100337.98;;;5.10;50.63
47742;BME280;33504;52.066;6.096;2022-11-21T08:33:16;100334.82;;;4.75;50.73
47742;BME280;33504;52.066;6.096;2022-11-21T08:35:43;100347.07;;;4.99;50.56
47742;BME280;33504;52.066;6.096;2022-11-21T08:38:11;100354.43;;;4.50;51.47
47742;BME280;33504;52.066;6.096;2022-11-21T08:40:39;100357.68;;;4.75;50.86
47742;BME280;33504;52.066;6.096;2022-11-21T08:43:07;100361.75;;;4.75;50.99
47742;BME280;33504;52.066;6.096;2022-11-21T08:45:36;100352.99;;;4.67;51.54
47742;BME280;33504;52.066;6.096;2022-11-21T08:48:07;100342.49;;;4.73;51.04
47742;BME280;33504;52.066;6.096;2022-11-21T08:50:35;100340.72;;;5.10;51.06
47742;BME280;33504;52.066;6.096;2022-11-21T08:53:02;100338.37;;;4.95;51.08
47742;BME280;33504;52.066;6.096;2022-11-21T08:55:30;100337.70;;;5.03;51.18
47742;BME280;33504;52.066;6.096;2022-11-21T08:57:58;100337.21;;;5.07;51.21
47742;BME280;33504;52.066;6.096;2022-11-21T09:00:25;100333.83;;;5.36;50.96
47742;BME280;33504;52.066;6.096;2022-11-21T09:02:53;100327.49;;;5.23;50.96
47742;BME280;33504;52.066;6.096;2022-11-21T09:05:20;100327.80;;;5.46;50.53
47742;BME280;33504;52.066;6.096;2022-11-21T09:07:47;100318.03;;;5.29;50.76
47742;BME280;33504;52.066;6.096;2022-11-21T09:10:15;100318.21;;;5.51;50.50
47742;BME280;33504;52.066;6.096;2022-11-21T09:12:42;100309.76;;;5.18;50.65
47742;BME280;33504;52.066;6.096;2022-11-21T09:15:10;100310.49;;;5.38;50.40
47742;BME280;33504;52.066;6.096;2022-11-21T09:17:37;100312.92;;;5.58;50.48
47742;BME280;33504;52.066;6.096;2022-11-21T09:20:06;100312.68;;;5.42;50.59
47742;BME280;33504;52.066;6.096;2022-11-21T09:22:33;100315.30;;;5.41;50.45
47742;BME280;33504;52.066;6.096;2022-11-21T09:25:00;100310.63;;;5.79;50.15
47742;BME280;33504;52.066;6.096;2022-11-21T09:27:29;100310.60;;;5.67;50.08
47742;BME280;33504;52.066;6.096;2022-11-21T09:29:56;100305.77;;;5.70;50.09
47742;BME280;33504;52.066;6.096;2022-11-21T09:32:23;100308.91;;;5.74;50.21
47742;BME280;33504;52.066;6.096;2022-11-21T09:34:50;100306.15;;;5.66;50.44
47742;BME280;33504;52.066;6.096;2022-11-21T09:37:17;100304.99;;;5.30;50.88
47742;BME280;33504;52.066;6.096;2022-11-21T09:39:44;100303.42;;;5.70;50.50
47742;BME280;33504;52.066;6.096;2022-11-21T09:42:27;100298.64;;;5.63;50.48
47742;BME280;33504;52.066;6.096;2022-11-21T09:45:03;100296.11;;;5.51;50.57
47742;BME280;33504;52.066;6.096;2022-11-21T09:47:32;100293.66;;;5.60;50.94
47742;BME280;33504;52.066;6.096;2022-11-21T09:50:03;100292.25;;;5.29;51.13
47742;BME280;33504;52.066;6.096;2022-11-21T09:52:35;100293.09;;;5.59;51.15
47742;BME280;33504;52.066;6.096;2022-11-21T09:55:06;100282.81;;;5.56;51.18
47742;BME280;33504;52.066;6.096;2022-11-21T09:57:42;100273.69;;;5.38;50.99
47742;BME280;33504;52.066;6.096;2022-11-21T10:00:15;100265.22;;;5.58;51.34
47742;BME280;33504;52.066;6.096;2022-11-21T10:02:45;100259.07;;;5.50;51.39
47742;BME280;33504;52.066;6.096;2022-11-21T10:05:13;100253.18;;;6.01;50.92
47742;BME280;33504;52.066;6.096;2022-11-21T10:07:41;100242.75;;;5.28;51.01
47742;BME280;33504;52.066;6.096;2022-11-21T10:10:28;100231.88;;;5.97;50.95
47742;BME280;33504;52.066;6.096;2022-11-21T10:13:09;100226.95;;;5.37;51.38
47742;BME280;33504;52.066;6.096;2022-11-21T10:15:49;100223.59;;;5.68;51.13
47742;BME280;33504;52.066;6.096;2022-11-21T10:18:29;100226.70;;;6.43;50.85
47742;BME280;33504;52.066;6.096;2022-11-21T10:21:05;100225.76;;;5.83;50.90
47742;BME280;33504;52.066;6.096;2022-11-21T10:23:48;100221.55;;;5.70;50.77
47742;BME280;33504;52.066;6.096;2022-11-21T10:26:23;100211.62;;;5.74;50.68
47742;BME280;33504;52.066;6.096;2022-11-21T10:28:58;100208.71;;;5.68;51.24
47742;BME280;33504;52.066;6.096;2022-11-21T10:31:28;100207.71;;;6.18;51.06
47742;BME280;33504;52.066;6.096;2022-11-21T10:33:58;100205.19;;;6.37;51.03
47742;BME280;33504;52.066;6.096;2022-11-21T10:36:30;100204.69;;;6.28;50.81
47742;BME280;33504;52.066;6.096;2022-11-21T10:39:04;100198.53;;;5.80;51.47
47742;BME280;33504;52.066;6.096;2022-11-21T10:41:39;100199.79;;;5.89;51.29
47742;BME280;33504;52.066;6.096;2022-11-21T10:44:15;100200.46;;;6.23;51.14
47742;BME280;33504;52.066;6.096;2022-11-21T10:46:53;100201.23;;;5.78;51.50
47742;BME280;33504;52.066;6.096;2022-11-21T10:49:20;100199.64;;;5.91;51.56
47742;BME280;33504;52.066;6.096;2022-11-21T10:51:51;100193.60;;;6.13;51.34
47742;BME280;33504;52.066;6.096;2022-11-21T10:54:18;100186.34;;;6.08;51.46
47742;BME280;33504;52.066;6.096;2022-11-21T10:56:45;100186.32;;;6.40;51.30
47742;BME280;33504;52.066;6.096;2022-11-21T10:59:20;100183.70;;;6.37;51.31
47742;BME280;33504;52.066;6.096;2022-11-21T11:01:54;100184.01;;;6.07;52.19
47742;BME280;33504;52.066;6.096;2022-11-21T11:04:21;100178.63;;;6.18;52.31
47742;BME280;33504;52.066;6.096;2022-11-21T11:06:48;100177.45;;;5.61;53.52
47742;BME280;33504;52.066;6.096;2022-11-21T11:09:27;100170.40;;;6.39;52.72
47742;BME280;33504;52.066;6.096;2022-11-21T11:12:20;100167.76;;;6.37;52.41
47742;BME280;33504;52.066;6.096;2022-11-21T11:14:50;100160.29;;;6.54;52.26
47742;BME280;33504;52.066;6.096;2022-11-21T11:17:26;100158.98;;;6.36;52.57
47742;BME280;33504;52.066;6.096;2022-11-21T11:20:04;100150.89;;;6.61;52.38
47742;BME280;33504;52.066;6.096;2022-11-21T11:22:31;100146.54;;;6.69;52.29
47742;BME280;33504;52.066;6.096;2022-11-21T11:25:03;100145.11;;;6.64;52.64
47742;BME280;33504;52.066;6.096;2022-11-21T11:27:30;100140.93;;;6.37;52.76
47742;BME280;33504;52.066;6.096;2022-11-21T11:30:13;100140.82;;;6.55;52.52
47742;BME280;33504;52.066;6.096;2022-11-21T11:32:41;100137.61;;;6.92;52.18
47742;BME280;33504;52.066;6.096;2022-11-21T11:35:20;100135.16;;;6.34;52.52
47742;BME280;33504;52.066;6.096;2022-11-21T11:37:57;100126.39;;;6.71;52.92
47742;BME280;33504;52.066;6.096;2022-11-21T11:40:29;100123.78;;;6.60;52.96
47742;BME280;33504;52.066;6.096;2022-11-21T11:43:11;100116.17;;;6.70;52.96
47742;BME280;33504;52.066;6.096;2022-11-21T11:45:50;100109.08;;;6.95;52.51
47742;BME280;33504;52.066;6.096;2022-11-21T11:48:21;100106.85;;;6.67;52.52
47742;BME280;33504;52.066;6.096;2022-11-21T11:50:50;100094.35;;;6.92;52.61
47742;BME280;33504;52.066;6.096;2022-11-21T11:53:20;100093.88;;;7.08;52.70
47742;BME280;33504;52.066;6.096;2022-11-21T11:55:50;100088.15;;;7.09;52.73
47742;BME280;33504;52.066;6.096;2022-11-21T11:58:24;100084.97;;;6.86;53.06
47742;BME280;33504;52.066;6.096;2022-11-21T12:00:59;100083.21;;;6.56;53.13
47742;BME280;33504;52.066;6.096;2022-11-21T12:03:35;100076.76;;;6.94;53.16
47742;BME280;33504;52.066;6.096;2022-11-21T12:06:11;100073.22;;;6.25;53.85
47742;BME280;33504;52.066;6.096;2022-11-21T12:08:47;100068.30;;;6.73;53.62
47742;BME280;33504;52.066;6.096;2022-11-21T12:11:24;100058.24;;;6.99;53.49
47742;BME280;33504;52.066;6.096;2022-11-21T12:13:54;100055.03;;;7.04;53.67
47742;BME280;33504;52.066;6.096;2022-11-21T12:16:24;100048.09;;;7.27;53.47
47742;BME280;33504;52.066;6.096;2022-11-21T12:18:55;100044.79;;;6.87;53.60
47742;BME280;33504;52.066;6.096;2022-11-21T12:21:27;100038.65;;;7.04;53.95
47742;BME280;33504;52.066;6.096;2022-11-21T12:23:55;100030.83;;;7.14;53.30
47742;BME280;33504;52.066;6.096;2022-11-21T12:26:34;100028.48;;;7.37;53.48
47742;BME280;33504;52.066;6.096;2022-11-21T12:29:14;100024.48;;;7.14;53.69
47742;BME280;33504;52.066;6.096;2022-11-21T12:32:00;100017.09;;;7.77;52.89
47742;BME280;33504;52.066;6.096;2022-11-21T12:34:46;100011.65;;;7.54;52.94
47742;BME280;33504;52.066;6.096;2022-11-21T12:37:27;100006.42;;;7.73;52.53
47742;BME280;33504;52.066;6.096;2022-11-21T12:40:06;100003.83;;;7.86;52.71
47742;BME280;33504;52.066;6.096;2022-11-21T12:42:40;99996.93;;;8.00;52.52
47742;BME280;33504;52.066;6.096;2022-11-21T12:45:24;99988.60;;;8.23;52.18
47742;BME280;33504;52.066;6.096;2022-11-21T12:48:09;99987.73;;;8.10;51.94
47742;BME280;33504;52.066;6.096;2022-11-21T12:50:42;99979.22;;;8.15;52.26
47742;BME280;33504;52.066;6.096;2022-11-21T12:53:21;99973.54;;;8.40;51.89
47742;BME280;33504;52.066;6.096;2022-11-21T12:56:00;99964.63;;;8.41;52.01
47742;BME280;33504;52.066;6.096;2022-11-21T12:58:37;99960.38;;;8.67;51.64
47742;BME280;33504;52.066;6.096;2022-11-21T13:01:16;99955.47;;;8.03;51.69
47742;BME280;33504;52.066;6.096;2022-11-21T13:03:50;99953.63;;;8.25;51.89
47742;BME280;33504;52.066;6.096;2022-11-21T13:06:23;99942.48;;;8.67;51.65
47742;BME280;33504;52.066;6.096;2022-11-21T13:08:53;99944.58;;;7.98;51.90
47742;BME280;33504;52.066;6.096;2022-11-21T13:11:29;99944.64;;;8.08;51.86